Time;durP1;ratioP1;P1;durP2;ratioP2;P2;SDS_P1;SDS_P2;PMS_P1;PMS_P2;Temp;Humidity;BMP_temperature;BMP_pressure;BME280_temperature;BME280_humidity;BME280_pressure;Samples;Min_cycle;Max_cycle;Signal;HPM_P1;HPM_P2
2023/05/28 12:21:37;;;;;;;5.13;3.08;;;;;;;;;;6020191;23;1263815;-86
2023/05/28 12:24:10;;;;;;;4.03;3.00;;;;;;;;;;6120097;23;20096;-89
2023/05/28 12:26:36;;;;;;;4.18;2.88;;;;;;;;;;6117969;23;20018;-93
2023/05/28 12:29:02;;;;;;;4.45;2.88;;;;;;;;;;6093781;23;20105;-87
2023/05/28 12:31:29;;;;;;;5.85;3.13;;;;;;;;;;6121877;23;20051;-88
2023/05/28 12:33:55;;;;;;;5.18;2.78;;;;;;;;;;6118794;23;20029;-91
2023/05/28 12:36:21;;;;;;;4.05;2.58;;;;;;;;;;6121023;23;20022;-92
2023/05/28 12:38:47;;;;;;;6.82;2.97;;;;;;;;;;6118674;23;20014;-89
2023/05/28 12:41:13;;;;;;;4.93;3.00;;;;;;;;;;6119881;23;20013;-93
2023/05/28 12:43:39;;;;;;;4.20;3.00;;;;;;;;;;6123355;23;20018;-91
2023/05/28 12:46:06;;;;;;;3.72;2.30;;;;;;;;;;6118973;23;20014;-91
2023/05/28 12:48:34;;;;;;;3.85;2.38;;;;;;;;;;6119074;23;20029;-91
2023/05/28 12:51:00;;;;;;;4.93;2.70;;;;;;;;;;6095018;23;20343;-87
2023/05/28 12:53:26;;;;;;;4.30;2.28;;;;;;;;;;6120891;23;20494;-94
2023/05/28 12:55:52;;;;;;;3.08;2.35;;;;;;;;;;6097007;23;20017;-92
2023/05/28 12:58:18;;;;;;;3.65;2.22;;;;;;;;;;6121399;23;20053;-87
2023/05/28 13:00:44;;;;;;;4.78;2.58;;;;;;;;;;6121003;23;20021;-90
2023/05/28 13:03:10;;;;;;;3.60;2.20;;;;;;;;;;6120599;23;20018;-92
2023/05/28 13:05:36;;;;;;;4.38;2.92;;;;;;;;;;6119453;23;20065;-94
2023/05/28 13:08:03;;;;;;;4.47;2.20;;;;;;;;;;6122361;23;20049;-95
2023/05/28 13:10:29;;;;;;;4.32;2.28;;;;;;;;;;6122469;23;20021;-93
2023/05/28 13:12:55;;;;;;;3.60;2.15;;;;;;;;;;6124055;23;20097;-92
2023/05/28 13:15:21;;;;;;;3.78;2.10;;;;;;;;;;6095390;23;20013;-91
2023/05/28 13:17:47;;;;;;;4.70;2.35;;;;;;;;;;6121320;23;20025;-91
2023/05/28 13:20:13;;;;;;;2.58;1.70;;;;;;;;;;6095856;23;20026;-91
2023/05/28 13:22:40;;;;;;;3.63;1.92;;;;;;;;;;6095240;23;20093;-92
2023/05/28 13:25:07;;;;;;;3.15;1.85;;;;;;;;;;6124704;23;20026;-89
2023/05/28 13:27:34;;;;;;;3.97;2.28;;;;;;;;;;6120871;23;20325;-92
2023/05/28 13:30:01;;;;;;;4.10;2.00;;;;;;;;;;6122517;23;20093;-93
2023/05/28 13:32:27;;;;;;;3.35;1.52;;;;;;;;;;6121762;23;20665;-87
2023/05/28 13:34:54;;;;;;;5.97;1.70;;;;;;;;;;6121851;23;20072;-89
2023/05/28 13:37:20;;;;;;;2.63;2.03;;;;;;;;;;6121704;23;20025;-86
2023/05/28 13:39:46;;;;;;;4.25;1.95;;;;;;;;;;6118695;23;20014;-89
2023/05/28 13:42:13;;;;;;;4.30;2.33;;;;;;;;;;6123252;23;20794;-88
2023/05/28 13:44:39;;;;;;;4.28;2.13;;;;;;;;;;6121704;23;20428;-90
2023/05/28 13:47:05;;;;;;;4.63;2.72;;;;;;;;;;6120203;23;20065;-92
2023/05/28 13:49:31;;;;;;;5.00;2.33;;;;;;;;;;6119276;23;20014;-91
2023/05/28 13:51:57;;;;;;;4.00;2.10;;;;;;;;;;6096062;23;20014;-93
2023/05/28 13:54:24;;;;;;;3.97;2.50;;;;;;;;;;6094694;23;20088;-89
2023/05/28 13:56:50;;;;;;;4.90;2.50;;;;;;;;;;6119200;23;20035;-86
2023/05/28 13:59:16;;;;;;;11.40;3.65;;;;;;;;;;6092216;23;20384;-85
2023/05/28 14:01:42;;;;;;;5.00;2.17;;;;;;;;;;6117450;23;20018;-86
2023/05/28 14:04:08;;;;;;;5.53;2.30;;;;;;;;;;6120328;23;20020;-88
2023/05/28 14:06:34;;;;;;;4.05;1.60;;;;;;;;;;6115519;23;20059;-90
2023/05/28 14:09:00;;;;;;;3.78;2.03;;;;;;;;;;6122078;23;20018;-87
2023/05/28 14:11:26;;;;;;;4.07;2.20;;;;;;;;;;6118802;23;20014;-86
2023/05/28 14:13:52;;;;;;;3.65;1.75;;;;;;;;;;6118411;23;20076;-86
2023/05/28 14:16:18;;;;;;;4.03;1.92;;;;;;;;;;6116757;23;20367;-90
2023/05/28 14:18:44;;;;;;;5.20;2.08;;;;;;;;;;6117814;23;20022;-85
2023/05/28 14:21:11;;;;;;;3.65;1.70;;;;;;;;;;6118962;23;20022;-90
2023/05/28 14:23:37;;;;;;;4.97;2.08;;;;;;;;;;6118864;23;20144;-85
2023/05/28 14:26:03;;;;;;;4.20;1.80;;;;;;;;;;6119016;23;20033;-87
2023/05/28 14:28:30;;;;;;;4.88;1.67;;;;;;;;;;6119481;23;20053;-88
2023/05/28 14:30:56;;;;;;;7.45;2.85;;;;;;;;;;6118278;23;20021;-87
2023/05/28 14:33:22;;;;;;;8.10;2.28;;;;;;;;;;6116373;23;20085;-85
2023/05/28 14:35:48;;;;;;;3.33;1.13;;;;;;;;;;6116129;23;20022;-86
2023/05/28 14:38:14;;;;;;;4.25;2.10;;;;;;;;;;6118837;23;20096;-86
2023/05/28 14:40:40;;;;;;;7.38;2.10;;;;;;;;;;6116664;23;20080;-86
2023/05/28 14:43:06;;;;;;;5.22;1.88;;;;;;;;;;6092373;23;20024;-88
2023/05/28 14:45:32;;;;;;;6.55;2.75;;;;;;;;;;6118312;23;20018;-87
2023/05/28 14:48:00;;;;;;;6.60;2.42;;;;;;;;;;6122017;23;20096;-87
2023/05/28 14:50:26;;;;;;;5.00;2.40;;;;;;;;;;6124936;23;20129;-88
2023/05/28 14:52:53;;;;;;;4.82;2.65;;;;;;;;;;6125951;23;20014;-91
2023/05/28 14:55:22;;;;;;;4.07;3.05;;;;;;;;;;6125433;23;20014;-92
2023/05/28 14:57:48;;;;;;;3.08;1.58;;;;;;;;;;6130590;23;20022;-87
2023/05/28 15:00:14;;;;;;;5.60;2.05;;;;;;;;;;6130566;23;20045;-87
2023/05/28 15:02:40;;;;;;;1.48;1.00;;;;;;;;;;6130821;23;20018;-91
2023/05/28 15:05:07;;;;;;;5.72;2.17;;;;;;;;;;6123982;23;20044;-90
2023/05/28 15:07:33;;;;;;;5.10;1.98;;;;;;;;;;6094640;23;20020;-90
2023/05/28 15:09:59;;;;;;;3.20;1.60;;;;;;;;;;6121765;23;20021;-92
2023/05/28 15:12:25;;;;;;;3.75;1.83;;;;;;;;;;6119554;23;20034;-91
2023/05/28 15:14:52;;;;;;;3.00;2.00;;;;;;;;;;6118391;23;20328;-96
2023/05/28 15:17:20;;;;;;;4.93;2.15;;;;;;;;;;6094388;23;20358;-91
2023/05/28 15:19:47;;;;;;;2.90;1.60;;;;;;;;;;6118784;23;20022;-94
2023/05/28 15:22:13;;;;;;;4.28;1.77;;;;;;;;;;6122373;23;20093;-92
2023/05/28 15:24:39;;;;;;;3.25;1.70;;;;;;;;;;6122296;23;20469;-96
2023/05/28 15:27:06;;;;;;;4.88;2.00;;;;;;;;;;6122299;23;20343;-94
2023/05/28 15:29:32;;;;;;;4.13;1.80;;;;;;;;;;6119443;23;20014;-89
2023/05/28 15:32:01;;;;;;;6.68;2.00;;;;;;;;;;6099301;23;20018;-91
2023/05/28 15:34:27;;;;;;;4.50;1.75;;;;;;;;;;6123687;23;20065;-90
2023/05/28 15:36:53;;;;;;;4.35;1.58;;;;;;;;;;6121595;23;20014;-90
2023/05/28 15:39:19;;;;;;;4.35;1.63;;;;;;;;;;6121809;23;20046;-86
2023/05/28 15:41:46;;;;;;;4.70;1.80;;;;;;;;;;6122153;23;20021;-88
2023/05/28 15:44:12;;;;;;;7.97;2.10;;;;;;;;;;6119089;23;20049;-92
2023/05/28 15:46:39;;;;;;;4.25;1.38;;;;;;;;;;6092379;23;20021;-89
2023/05/28 15:49:05;;;;;;;4.53;2.03;;;;;;;;;;6119958;23;20014;-89
2023/05/28 15:51:31;;;;;;;5.40;2.00;;;;;;;;;;6118253;23;20077;-93
2023/05/28 15:53:58;;;;;;;3.10;1.73;;;;;;;;;;6119079;23;20072;-89
2023/05/28 15:56:24;;;;;;;3.88;1.90;;;;;;;;;;6117210;23;20033;-89
2023/05/28 15:58:51;;;;;;;4.40;2.38;;;;;;;;;;6121208;23;20245;-90
2023/05/28 16:01:17;;;;;;;6.13;2.17;;;;;;;;;;6118423;23;20084;-86
2023/05/28 16:03:44;;;;;;;4.32;2.13;;;;;;;;;;6117389;23;20018;-92
2023/05/28 16:06:10;;;;;;;3.78;1.70;;;;;;;;;;6119792;23;20096;-82
2023/05/28 16:08:36;;;;;;;5.45;1.60;;;;;;;;;;6116646;23;20026;-93
2023/05/28 16:11:02;;;;;;;5.95;2.83;;;;;;;;;;6093819;23;20017;-89
2023/05/28 16:13:29;;;;;;;6.88;2.05;;;;;;;;;;6117969;23;20053;-88
2023/05/28 16:15:57;;;;;;;3.22;1.73;;;;;;;;;;6119301;23;20049;-92
2023/05/28 16:18:24;;;;;;;4.53;2.28;;;;;;;;;;6116767;23;20275;-87
2023/05/28 16:20:50;;;;;;;6.20;2.33;;;;;;;;;;6093562;23;20045;-90
2023/05/28 16:23:18;;;;;;;5.38;2.22;;;;;;;;;;6121285;23;20104;-89
2023/05/28 16:25:45;;;;;;;7.28;2.50;;;;;;;;;;6118993;23;20363;-87
2023/05/28 16:28:11;;;;;;;5.97;2.53;;;;;;;;;;6093838;23;20319;-88
2023/05/28 16:30:38;;;;;;;4.93;2.00;;;;;;;;;;6120895;23;20014;-85
2023/05/28 16:33:04;;;;;;;5.70;2.35;;;;;;;;;;6117653;23;20026;-87
2023/05/28 16:35:30;;;;;;;5.43;2.15;;;;;;;;;;6119268;23;20010;-89
2023/05/28 16:37:56;;;;;;;3.13;2.20;;;;;;;;;;6119305;23;20018;-87
2023/05/28 16:40:22;;;;;;;4.82;1.90;;;;;;;;;;6119685;23;20343;-87
2023/05/28 16:42:48;;;;;;;7.45;2.33;;;;;;;;;;6095019;23;20022;-92
2023/05/28 16:45:15;;;;;;;2.50;1.95;;;;;;;;;;6094324;23;20018;-87
2023/05/28 16:47:41;;;;;;;4.15;1.73;;;;;;;;;;6119236;23;20031;-90
2023/05/28 16:50:14;;;;;;;1.95;1.77;;;;;;;;;;6121085;23;20014;-88
2023/05/28 16:52:42;;;;;;;6.18;2.00;;;;;;;;;;6119439;23;20289;-92
2023/05/28 16:55:09;;;;;;;4.43;2.20;;;;;;;;;;6119426;23;20336;-87
2023/05/28 16:57:35;;;;;;;4.22;2.50;;;;;;;;;;6118331;23;20022;-86
2023/05/28 17:00:09;;;;;;;2.50;1.70;;;;;;;;;;6119244;23;20014;-90
2023/05/28 17:02:35;;;;;;;3.33;2.00;;;;;;;;;;6117448;23;20029;-92
2023/05/28 17:05:01;;;;;;;5.00;1.55;;;;;;;;;;6120057;23;20298;-85
2023/05/28 17:07:27;;;;;;;3.60;1.73;;;;;;;;;;6118415;23;20339;-89
2023/05/28 17:09:53;;;;;;;2.40;1.85;;;;;;;;;;6120541;23;20017;-90
2023/05/28 17:12:20;;;;;;;4.68;2.67;;;;;;;;;;6119773;23;20057;-92
2023/05/28 17:14:46;;;;;;;3.50;2.22;;;;;;;;;;6120832;23;20013;-89
2023/05/28 17:17:12;;;;;;;3.00;2.40;;;;;;;;;;6120973;23;20014;-88
2023/05/28 17:19:38;;;;;;;4.82;2.10;;;;;;;;;;6119649;23;20021;-85
2023/05/28 17:22:05;;;;;;;3.15;1.80;;;;;;;;;;6120758;23;20026;-92
2023/05/28 17:24:31;;;;;;;5.95;2.78;;;;;;;;;;6119081;23;20458;-93
2023/05/28 17:26:57;;;;;;;3.65;2.83;;;;;;;;;;6096023;23;20017;-92
2023/05/28 17:29:23;;;;;;;8.00;3.13;;;;;;;;;;6119976;23;20009;-88
2023/05/28 17:31:49;;;;;;;5.43;2.97;;;;;;;;;;6122283;23;20633;-96
2023/05/28 17:34:16;;;;;;;6.53;3.15;;;;;;;;;;6122460;23;20740;-91
2023/05/28 17:36:42;;;;;;;4.03;2.55;;;;;;;;;;6120579;23;20013;-89
2023/05/28 17:39:08;;;;;;;4.95;2.30;;;;;;;;;;6121567;23;20347;-91
2023/05/28 17:41:34;;;;;;;6.28;3.15;;;;;;;;;;6122024;23;20146;-90
2023/05/28 17:44:03;;;;;;;5.78;2.47;;;;;;;;;;6126424;23;20368;-89
2023/05/28 17:46:33;;;;;;;3.92;2.72;;;;;;;;;;6118904;23;20040;-88
2023/05/28 17:48:59;;;;;;;6.20;2.90;;;;;;;;;;6123844;23;20491;-95
2023/05/28 17:51:26;;;;;;;4.70;2.60;;;;;;;;;;6122631;23;20511;-91
2023/05/28 17:53:52;;;;;;;7.78;2.50;;;;;;;;;;6124298;23;20014;-94
2023/05/28 17:56:18;;;;;;;6.75;2.85;;;;;;;;;;6099592;23;20029;-94
2023/05/28 17:58:47;;;;;;;6.22;2.53;;;;;;;;;;6124431;23;20045;-84
2023/05/28 18:01:13;;;;;;;5.07;3.13;;;;;;;;;;6117318;23;20117;-86
2023/05/28 18:03:39;;;;;;;5.57;2.88;;;;;;;;;;6117395;23;20053;-84
2023/05/28 18:06:05;;;;;;;5.47;3.30;;;;;;;;;;6119340;23;20343;-86
2023/05/28 18:08:31;;;;;;;6.30;3.45;;;;;;;;;;6116686;23;20018;-90
2023/05/28 18:10:57;;;;;;;7.25;2.70;;;;;;;;;;6120874;23;20242;-86
2023/05/28 18:13:24;;;;;;;6.25;2.78;;;;;;;;;;6117415;23;20064;-84
2023/05/28 18:15:50;;;;;;;8.10;3.05;;;;;;;;;;6118662;23;20014;-85
2023/05/28 18:18:16;;;;;;;4.05;2.33;;;;;;;;;;6119161;23;20010;-85
2023/05/28 18:20:42;;;;;;;6.07;2.72;;;;;;;;;;6118195;23;20079;-82
2023/05/28 18:23:08;;;;;;;6.78;3.63;;;;;;;;;;6118727;23;20486;-88
2023/05/28 18:25:35;;;;;;;6.53;2.60;;;;;;;;;;6116462;23;20101;-87
2023/05/28 18:28:06;;;;;;;3.53;2.30;;;;;;;;;;6118463;23;20056;-87
2023/05/28 18:30:32;;;;;;;4.60;2.78;;;;;;;;;;6091442;23;20086;-85
2023/05/28 18:32:58;;;;;;;4.55;2.30;;;;;;;;;;6094143;23;20064;-87
2023/05/28 18:35:24;;;;;;;3.38;2.55;;;;;;;;;;6116903;23;20022;-86
2023/05/28 18:37:50;;;;;;;4.22;2.55;;;;;;;;;;6117266;23;20018;-86
2023/05/28 18:40:16;;;;;;;4.50;2.97;;;;;;;;;;6119198;23;20041;-87
2023/05/28 18:42:42;;;;;;;7.93;3.40;;;;;;;;;;6117216;23;20513;-86
2023/05/28 18:45:09;;;;;;;5.50;2.67;;;;;;;;;;6119298;23;20080;-85
2023/05/28 18:47:35;;;;;;;6.90;3.70;;;;;;;;;;6116875;23;20106;-89
2023/05/28 18:50:02;;;;;;;5.03;2.92;;;;;;;;;;6118036;23;20018;-89
2023/05/28 18:52:28;;;;;;;7.57;3.28;;;;;;;;;;6116342;23;20111;-87
2023/05/28 18:54:54;;;;;;;7.22;2.78;;;;;;;;;;6117806;23;20018;-86
2023/05/28 18:57:20;;;;;;;5.25;3.28;;;;;;;;;;6116771;23;20378;-86
2023/05/28 18:59:46;;;;;;;6.93;3.17;;;;;;;;;;6114315;23;20097;-85
2023/05/28 19:02:12;;;;;;;5.63;2.58;;;;;;;;;;6118526;23;20093;-86
2023/05/28 19:04:38;;;;;;;5.38;2.90;;;;;;;;;;6115292;23;20403;-83
2023/05/28 19:07:04;;;;;;;7.38;2.90;;;;;;;;;;6113941;23;20018;-87
2023/05/28 19:09:30;;;;;;;7.30;3.33;;;;;;;;;;6111259;23;20022;-84
2023/05/28 19:11:56;;;;;;;8.25;2.92;;;;;;;;;;6118663;23;20033;-85
2023/05/28 19:14:22;;;;;;;6.90;2.65;;;;;;;;;;6113106;23;20391;-85
2023/05/28 19:16:48;;;;;;;5.60;2.15;;;;;;;;;;6114820;23;20032;-84
2023/05/28 19:19:14;;;;;;;10.93;2.22;;;;;;;;;;6115877;23;20089;-84
2023/05/28 19:21:40;;;;;;;7.20;3.17;;;;;;;;;;6113570;23;20092;-84
2023/05/28 19:24:06;;;;;;;4.32;2.05;;;;;;;;;;6116515;23;20021;-84
2023/05/28 19:26:32;;;;;;;5.82;1.73;;;;;;;;;;6112403;23;20025;-89
2023/05/28 19:28:59;;;;;;;5.28;2.00;;;;;;;;;;6118852;23;20732;-88
2023/05/28 19:31:27;;;;;;;8.70;1.88;;;;;;;;;;6115539;23;20050;-89
2023/05/28 19:33:53;;;;;;;4.53;1.70;;;;;;;;;;6117692;23;20018;-90
2023/05/28 19:36:19;;;;;;;6.03;2.28;;;;;;;;;;6118035;23;20022;-87
2023/05/28 19:38:45;;;;;;;8.57;1.70;;;;;;;;;;6119907;23;20013;-90
2023/05/28 19:41:13;;;;;;;7.97;1.88;;;;;;;;;;6119118;23;20018;-89
2023/05/28 19:43:40;;;;;;;8.43;1.67;;;;;;;;;;6117555;23;20022;-87
2023/05/28 19:46:06;;;;;;;8.57;1.92;;;;;;;;;;6119125;23;20018;-88
2023/05/28 19:48:32;;;;;;;7.15;2.25;;;;;;;;;;6116844;23;20435;-92
2023/05/28 19:50:59;;;;;;;9.07;2.13;;;;;;;;;;6118760;23;20065;-89
2023/05/28 19:53:25;;;;;;;6.25;1.33;;;;;;;;;;6120884;23;20077;-87
2023/05/28 19:55:50;;;;;;;7.95;1.88;;;;;;;;;;6116925;23;20482;-86
2023/05/28 19:58:19;;;;;;;9.15;1.88;;;;;;;;;;6094144;23;20042;-91
2023/05/28 20:00:48;;;;;;;7.32;2.25;;;;;;;;;;6095244;23;20013;-88
2023/05/28 20:03:14;;;;;;;4.07;1.50;;;;;;;;;;6115994;23;20093;-89
2023/05/28 20:05:40;;;;;;;3.85;1.90;;;;;;;;;;6117940;23;20521;-90
2023/05/28 20:08:07;;;;;;;9.70;1.50;;;;;;;;;;6120087;23;20010;-91
2023/05/28 20:10:33;;;;;;;6.68;1.92;;;;;;;;;;6118604;23;20029;-90
2023/05/28 20:12:59;;;;;;;6.93;1.65;;;;;;;;;;6118574;23;20022;-89
2023/05/28 20:15:26;;;;;;;5.85;2.05;;;;;;;;;;6120871;23;20010;-87
2023/05/28 20:17:52;;;;;;;9.98;1.80;;;;;;;;;;6118984;23;20092;-89
2023/05/28 20:20:18;;;;;;;7.53;1.80;;;;;;;;;;6117046;23;20053;-86
2023/05/28 20:22:44;;;;;;;5.15;1.70;;;;;;;;;;6114606;23;20025;-87
2023/05/28 20:25:11;;;;;;;6.70;2.33;;;;;;;;;;6120776;23;20014;-85
2023/05/28 20:27:37;;;;;;;5.15;1.92;;;;;;;;;;6116977;23;20434;-86
2023/05/28 20:30:04;;;;;;;5.00;1.60;;;;;;;;;;6119522;23;20042;-88
2023/05/28 20:32:30;;;;;;;5.90;1.63;;;;;;;;;;6117125;23;20064;-84
2023/05/28 20:34:56;;;;;;;7.07;2.80;;;;;;;;;;6092273;23;20009;-85
2023/05/28 20:37:22;;;;;;;6.32;1.52;;;;;;;;;;6092930;23;20093;-85
2023/05/28 20:39:49;;;;;;;7.25;1.67;;;;;;;;;;6117970;23;20392;-84
2023/05/28 20:42:15;;;;;;;6.45;1.90;;;;;;;;;;6117463;23;20019;-90
2023/05/28 20:44:44;;;;;;;7.60;1.55;;;;;;;;;;6118910;23;20017;-85
2023/05/28 20:47:11;;;;;;;10.65;2.30;;;;;;;;;;6118835;23;20022;-89
2023/05/28 20:49:37;;;;;;;7.00;2.00;;;;;;;;;;6094860;23;20022;-88
2023/05/28 20:52:03;;;;;;;8.43;1.88;;;;;;;;;;6120019;23;20014;-85
2023/05/28 20:54:29;;;;;;;7.68;2.58;;;;;;;;;;6120417;23;20014;-84
2023/05/28 20:56:55;;;;;;;8.77;2.22;;;;;;;;;;6129544;23;20141;-85
2023/05/28 20:59:24;;;;;;;5.18;1.50;;;;;;;;;;6095093;23;20201;-85
2023/05/28 21:01:50;;;;;;;11.57;1.85;;;;;;;;;;6128922;23;20017;-87
2023/05/28 21:04:16;;;;;;;10.90;2.20;;;;;;;;;;6120324;23;20049;-89
2023/05/28 21:06:42;;;;;;;5.63;2.35;;;;;;;;;;6120823;23;20018;-90
2023/05/28 21:09:08;;;;;;;9.55;1.92;;;;;;;;;;6118825;23;20117;-87
2023/05/28 21:11:34;;;;;;;6.75;1.85;;;;;;;;;;6120087;23;20021;-86
2023/05/28 21:14:00;;;;;;;7.68;2.22;;;;;;;;;;6117454;23;20014;-86
2023/05/28 21:16:26;;;;;;;5.70;2.33;;;;;;;;;;6117574;23;20018;-87
2023/05/28 21:18:52;;;;;;;6.07;1.45;;;;;;;;;;6118793;23;20029;-89
2023/05/28 21:21:19;;;;;;;5.38;1.55;;;;;;;;;;6118396;23;20040;-86
2023/05/28 21:23:45;;;;;;;7.20;1.88;;;;;;;;;;6117859;23;20022;-85
2023/05/28 21:26:11;;;;;;;6.65;1.88;;;;;;;;;;6117052;23;20017;-85
2023/05/28 21:28:37;;;;;;;10.27;2.00;;;;;;;;;;6115913;23;20030;-85
2023/05/28 21:31:04;;;;;;;6.20;1.42;;;;;;;;;;6121302;23;20111;-88
2023/05/28 21:33:30;;;;;;;12.27;2.13;;;;;;;;;;6119224;23;20021;-85
2023/05/28 21:35:56;;;;;;;7.20;2.10;;;;;;;;;;6115936;23;20018;-85
2023/05/28 21:38:23;;;;;;;9.50;1.83;;;;;;;;;;6119599;23;20041;-87
2023/05/28 21:40:49;;;;;;;5.90;1.63;;;;;;;;;;6117150;23;20053;-84
2023/05/28 21:43:15;;;;;;;10.50;2.70;;;;;;;;;;6118165;23;20018;-91
2023/05/28 21:45:44;;;;;;;6.53;1.98;;;;;;;;;;6094478;23;20014;-82
2023/05/28 21:48:10;;;;;;;7.13;1.85;;;;;;;;;;6121048;23;20028;-88
2023/05/28 21:50:36;;;;;;;6.32;1.30;;;;;;;;;;6119882;23;20509;-86
2023/05/28 21:53:02;;;;;;;9.57;1.95;;;;;;;;;;6122239;23;20046;-88
2023/05/28 21:55:28;;;;;;;5.82;1.35;;;;;;;;;;6118506;23;20014;-84
2023/05/28 21:57:54;;;;;;;5.97;1.90;;;;;;;;;;6118323;23;20022;-90
2023/05/28 22:00:21;;;;;;;8.75;2.13;;;;;;;;;;6094972;23;20439;-89
2023/05/28 22:02:48;;;;;;;10.88;1.88;;;;;;;;;;6124022;23;20022;-88
2023/05/28 22:05:14;;;;;;;4.72;1.88;;;;;;;;;;6120851;23;20066;-85
2023/05/28 22:07:41;;;;;;;8.52;1.70;;;;;;;;;;6119805;23;20089;-85
2023/05/28 22:10:09;;;;;;;5.50;1.60;;;;;;;;;;6119271;23;20018;-85
2023/05/28 22:12:37;;;;;;;7.10;2.10;;;;;;;;;;6119101;23;20711;-89
2023/05/28 22:15:04;;;;;;;8.68;1.60;;;;;;;;;;6118018;23;20014;-83
2023/05/28 22:17:32;;;;;;;7.65;1.90;;;;;;;;;;6115717;23;20048;-85
2023/05/28 22:19:58;;;;;;;6.95;1.58;;;;;;;;;;6119261;23;20024;-85
2023/05/28 22:22:25;;;;;;;8.40;1.48;;;;;;;;;;6117101;23;20061;-86
2023/05/28 22:24:51;;;;;;;5.63;1.35;;;;;;;;;;6118455;23;20097;-87
2023/05/28 22:27:17;;;;;;;6.28;1.63;;;;;;;;;;6118215;23;20045;-84
2023/05/28 22:29:43;;;;;;;3.25;0.98;;;;;;;;;;6116654;23;20018;-89
2023/05/28 22:32:09;;;;;;;5.93;1.60;;;;;;;;;;6117380;23;20017;-84
2023/05/28 22:34:35;;;;;;;6.78;1.65;;;;;;;;;;6117488;23;20097;-85
2023/05/28 22:37:01;;;;;;;4.72;1.63;;;;;;;;;;6119370;23;20070;-84
2023/05/28 22:39:28;;;;;;;9.40;1.58;;;;;;;;;;6117202;23;20014;-84
2023/05/28 22:41:54;;;;;;;4.65;1.27;;;;;;;;;;6116314;23;20018;-85
2023/05/28 22:44:20;;;;;;;5.13;1.63;;;;;;;;;;6116242;23;20022;-90
2023/05/28 22:46:48;;;;;;;5.35;1.42;;;;;;;;;;6114816;23;20081;-86
2023/05/28 22:49:15;;;;;;;6.70;1.48;;;;;;;;;;6118764;23;20137;-88
2023/05/28 22:51:46;;;;;;;10.40;1.55;;;;;;;;;;6117099;23;20018;-84
2023/05/28 22:54:14;;;;;;;;;;;;;;;;;;6093084;23;20014;-85
2023/05/28 22:56:44;;;;;;;7.35;1.40;;;;;;;;;;6114825;23;20055;-85
2023/05/28 22:59:13;;;;;;;6.32;1.20;;;;;;;;;;6116542;23;20025;-85
2023/05/28 23:01:39;;;;;;;4.93;1.30;;;;;;;;;;6112287;23;20022;-85
2023/05/28 23:04:06;;;;;;;6.47;1.70;;;;;;;;;;6117352;23;20018;-84
2023/05/28 23:06:32;;;;;;;6.88;1.55;;;;;;;;;;6115534;23;20025;-85
2023/05/28 23:08:58;;;;;;;6.45;1.35;;;;;;;;;;6116776;23;20048;-86
2023/05/28 23:11:25;;;;;;;3.03;1.52;;;;;;;;;;6116255;23;20014;-83
2023/05/28 23:13:51;;;;;;;5.25;1.77;;;;;;;;;;6117212;23;20069;-85
2023/05/28 23:16:17;;;;;;;8.73;1.63;;;;;;;;;;6117788;23;20037;-85
2023/05/28 23:18:44;;;;;;;6.88;1.58;;;;;;;;;;6115796;23;20022;-84
2023/05/28 23:21:10;;;;;;;5.47;1.50;;;;;;;;;;6117872;23;20407;-84
2023/05/28 23:23:37;;;;;;;5.85;1.58;;;;;;;;;;6117714;23;20018;-84
2023/05/28 23:26:03;;;;;;;6.10;1.65;;;;;;;;;;6116969;23;20371;-84
2023/05/28 23:28:29;;;;;;;4.65;1.33;;;;;;;;;;6114752;23;20052;-85
2023/05/28 23:30:56;;;;;;;5.45;1.70;;;;;;;;;;6118481;23;20027;-86
2023/05/28 23:33:22;;;;;;;9.30;1.55;;;;;;;;;;6116682;23;20288;-82
2023/05/28 23:35:48;;;;;;;8.25;1.20;;;;;;;;;;6115431;23;20018;-84
2023/05/28 23:38:14;;;;;;;5.78;1.80;;;;;;;;;;6116699;23;20024;-84
2023/05/28 23:40:40;;;;;;;7.57;1.45;;;;;;;;;;6116276;23;20018;-84
2023/05/28 23:43:07;;;;;;;7.15;1.92;;;;;;;;;;6117673;23;20025;-84
2023/05/28 23:45:36;;;;;;;6.25;2.15;;;;;;;;;;6114558;23;20029;-83
2023/05/28 23:48:03;;;;;;;6.20;1.30;;;;;;;;;;6115913;23;20022;-84
2023/05/28 23:50:29;;;;;;;8.02;1.40;;;;;;;;;;6116806;23;20010;-85
2023/05/28 23:52:55;;;;;;;7.82;1.50;;;;;;;;;;6116334;23;20021;-84
2023/05/28 23:55:21;;;;;;;7.05;1.50;;;;;;;;;;6114783;23;20451;-85
2023/05/28 23:57:47;;;;;;;6.10;1.67;;;;;;;;;;6114944;23;20017;-85
